Time;durP1;ratioP1;P1;durP2;ratioP2;P2;SDS_P1;SDS_P2;PMS_P1;PMS_P2;Temp;Humidity;BMP_temperature;BMP_pressure;BME280_temperature;BME280_humidity;BME280_pressure;Samples;Min_cycle;Max_cycle;Signal;HPM_P1;HPM_P2
2021/12/24 00:02:08;;;;;;;9.33;5.03;;;;;;;;;;5053205;28;20176;-68
2021/12/24 00:05:12;;;;;;;6.23;4.53;;;;;;;;;;5029505;28;20208;-68
2021/12/24 00:08:17;;;;;;;6.77;3.77;;;;;;;;;;5039990;28;20199;-69
2021/12/24 00:11:21;;;;;;;6.20;4.07;;;;;;;;;;5051474;28;20185;-68
2021/12/24 00:14:27;;;;;;;7.07;4.70;;;;;;;;;;5052609;28;20220;-68
2021/12/24 00:17:34;;;;;;;6.60;4.23;;;;;;;;;;5053329;28;20176;-68
2021/12/24 00:37:10;;;;;;;6.80;3.70;;;;;;;;;;5032065;28;20205;-67
2021/12/24 00:40:19;;;;;;;6.37;3.60;;;;;;;;;;5040228;28;20192;-68
2021/12/24 00:43:23;;;;;;;6.63;3.60;;;;;;;;;;5039909;28;20196;-68
2021/12/24 00:46:27;;;;;;;4.97;3.17;;;;;;;;;;5052796;28;20626;-68
2021/12/24 00:49:32;;;;;;;5.13;3.57;;;;;;;;;;5039978;28;20201;-68
2021/12/24 00:52:49;;;;;;;7.80;3.90;;;;;;;;;;5040523;28;20354;-68
2021/12/24 00:55:54;;;;;;;7.17;3.60;;;;;;;;;;5051239;28;20216;-68
2021/12/24 00:58:58;;;;;;;7.07;3.97;;;;;;;;;;5035779;28;20188;-68
2021/12/24 01:02:04;;;;;;;7.07;3.97;;;;;;;;;;5044033;28;20176;-68
2021/12/24 01:05:10;;;;;;;8.80;3.60;;;;;;;;;;5043588;28;20694;-68
2021/12/24 01:08:17;;;;;;;5.67;4.07;;;;;;;;;;5044510;28;20192;-68
2021/12/24 01:11:21;;;;;;;7.83;3.80;;;;;;;;;;5043281;28;20203;-68
2021/12/24 01:14:25;;;;;;;6.50;4.37;;;;;;;;;;5043424;28;20220;-68
2021/12/24 01:17:36;;;;;;;5.77;4.00;;;;;;;;;;5043092;28;20184;-68
2021/12/24 01:20:48;;;;;;;7.10;4.10;;;;;;;;;;5043789;28;20188;-68
2021/12/24 01:23:59;;;;;;;4.90;3.30;;;;;;;;;;5043102;28;20581;-69
2021/12/24 01:27:21;;;;;;;5.00;3.50;;;;;;;;;;5043577;28;20658;-68
2021/12/24 01:40:26;;;;;;;4.40;3.00;;;;;;;;;;5043791;28;20189;-68
2021/12/24 01:43:30;;;;;;;5.57;3.27;;;;;;;;;;5042925;28;20196;-69
2021/12/24 01:46:35;;;;;;;4.83;3.07;;;;;;;;;;5042835;28;20179;-68
2021/12/24 01:49:40;;;;;;;4.40;2.70;;;;;;;;;;5034169;28;20184;-69
2021/12/24 01:52:48;;;;;;;3.97;3.10;;;;;;;;;;5026003;28;20196;-68
2021/12/24 01:55:53;;;;;;;4.00;2.87;;;;;;;;;;5042513;28;20211;-68
2021/12/24 01:58:58;;;;;;;5.93;2.87;;;;;;;;;;5034068;28;20240;-68
2021/12/24 02:02:02;;;;;;;4.27;2.87;;;;;;;;;;5023306;28;20539;-68
2021/12/24 02:05:07;;;;;;;4.40;3.20;;;;;;;;;;5053850;28;20216;-68
2021/12/24 02:08:12;;;;;;;6.73;3.10;;;;;;;;;;5042585;28;20562;-68
2021/12/24 02:11:17;;;;;;;5.17;2.77;;;;;;;;;;5054520;28;20192;-68
2021/12/24 02:14:24;;;;;;;3.80;2.50;;;;;;;;;;5054945;28;20220;-68
2021/12/24 02:30:43;;;;;;;3.43;2.57;;;;;;;;;;5041936;28;20200;-68
2021/12/24 02:33:47;;;;;;;6.47;2.97;;;;;;;;;;5042196;28;20215;-68
2021/12/24 02:36:51;;;;;;;4.63;2.83;;;;;;;;;;5054936;28;20215;-68
2021/12/24 02:39:56;;;;;;;5.50;3.00;;;;;;;;;;5022598;28;20185;-68
2021/12/24 02:43:02;;;;;;;5.60;2.97;;;;;;;;;;5052952;28;20188;-68
2021/12/24 02:46:15;;;;;;;4.13;2.70;;;;;;;;;;5054024;28;20184;-68
2021/12/24 02:53:55;;;;;;;6.63;3.13;;;;;;;;;;5032862;28;20204;-68
2021/12/24 02:56:06;;;;;;;3.73;2.80;;;;;;;;;;5021790;28;20217;-68
2021/12/24 02:59:12;;;;;;;6.67;3.37;;;;;;;;;;5049843;28;20196;-68
2021/12/24 03:02:16;;;;;;;3.87;2.80;;;;;;;;;;5041464;28;20200;-68
2021/12/24 03:05:22;;;;;;;5.93;2.90;;;;;;;;;;5041101;28;20223;-68
2021/12/24 03:08:26;;;;;;;3.97;2.87;;;;;;;;;;5041201;28;20200;-68
2021/12/24 03:11:31;;;;;;;4.70;3.17;;;;;;;;;;5041647;28;20171;-68
2021/12/24 03:14:35;;;;;;;5.80;2.93;;;;;;;;;;5029969;28;20223;-68
2021/12/24 03:17:45;;;;;;;5.33;2.60;;;;;;;;;;5046331;28;20573;-68
2021/12/24 03:20:56;;;;;;;3.10;2.30;;;;;;;;;;5041511;28;20188;-68
2021/12/24 03:27:10;;;;;;;5.33;2.93;;;;;;;;;;5053222;28;20173;-69
2021/12/24 03:30:14;;;;;;;6.77;3.73;;;;;;;;;;5032725;28;20185;-68
2021/12/24 03:33:18;;;;;;;7.03;3.47;;;;;;;;;;5033222;28;20683;-69
2021/12/24 03:36:24;;;;;;;8.37;3.97;;;;;;;;;;5040910;28;20207;-68
2021/12/24 03:39:30;;;;;;;5.37;2.70;;;;;;;;;;5036426;28;20192;-68
2021/12/24 03:42:37;;;;;;;4.53;2.63;;;;;;;;;;5053399;28;20180;-68
2021/12/24 03:45:54;;;;;;;5.40;2.70;;;;;;;;;;5040691;28;20211;-68
2021/12/24 03:49:07;;;;;;;5.80;2.90;;;;;;;;;;5035606;28;20643;-68
2021/12/24 03:52:34;;;;;;;4.20;2.70;;;;;;;;;;5040765;28;20176;-70
2021/12/24 03:55:39;;;;;;;4.10;2.80;;;;;;;;;;5040389;28;20219;-68
2021/12/24 03:58:44;;;;;;;8.23;2.67;;;;;;;;;;5052111;28;20184;-68
2021/12/24 04:02:11;;;;;;;4.67;3.07;;;;;;;;;;5034202;28;20212;-68
2021/12/24 04:05:15;;;;;;;7.03;3.30;;;;;;;;;;5052210;28;20212;-68
2021/12/24 04:08:38;;;;;;;5.13;2.37;;;;;;;;;;5040717;28;20184;-68
2021/12/24 04:12:03;;;;;;;5.30;3.03;;;;;;;;;;5053064;28;20185;-68
2021/12/24 04:15:08;;;;;;;3.30;2.30;;;;;;;;;;5028946;28;20215;-68
2021/12/24 04:18:22;;;;;;;4.23;2.33;;;;;;;;;;5040063;28;20211;-68
2021/12/24 04:24:54;;;;;;;3.30;1.87;;;;;;;;;;5028866;28;20224;-68
2021/12/24 04:28:00;;;;;;;2.50;1.70;;;;;;;;;;5040568;28;20200;-68
2021/12/24 04:31:04;;;;;;;3.67;2.10;;;;;;;;;;5038285;28;20640;-68
2021/12/24 04:34:12;;;;;;;2.77;2.10;;;;;;;;;;5040004;28;20216;-68
2021/12/24 05:01:24;;;;;;;5.00;1.90;;;;;;;;;;5043993;28;20555;-68
2021/12/24 05:04:33;;;;;;;2.40;1.80;;;;;;;;;;5024065;28;20227;-69
2021/12/24 05:10:44;;;;;;;4.57;2.40;;;;;;;;;;5038338;28;20192;-68
2021/12/24 05:13:52;;;;;;;3.40;1.87;;;;;;;;;;5034855;28;20711;-68
2021/12/24 05:17:20;;;;;;;5.20;2.77;;;;;;;;;;5012670;28;20208;-68
2021/12/24 05:24:26;;;;;;;4.50;2.70;;;;;;;;;;5032704;28;20220;-68
2021/12/24 05:27:56;;;;;;;4.10;2.70;;;;;;;;;;5024567;28;20201;-69
2021/12/24 05:31:00;;;;;;;2.57;2.07;;;;;;;;;;5038759;28;20216;-71
2021/12/24 05:34:04;;;;;;;2.70;2.30;;;;;;;;;;5031711;28;20224;-70
2021/12/24 05:37:09;;;;;;;3.10;2.03;;;;;;;;;;5043418;28;20650;-70
2021/12/24 05:40:14;;;;;;;3.80;2.60;;;;;;;;;;5030823;28;20192;-71
2021/12/24 05:43:18;;;;;;;4.93;3.10;;;;;;;;;;5042832;28;20184;-71
2021/12/24 05:46:23;;;;;;;3.83;2.17;;;;;;;;;;5042598;28;20192;-70
2021/12/24 05:49:50;;;;;;;3.73;2.50;;;;;;;;;;5051051;28;20200;-71
2021/12/24 05:53:12;;;;;;;6.50;3.83;;;;;;;;;;5050270;28;20547;-71
2021/12/24 05:56:32;;;;;;;7.93;4.40;;;;;;;;;;5042734;28;20192;-71
2021/12/24 05:59:49;;;;;;;3.80;2.73;;;;;;;;;;5042820;28;20200;-70
2021/12/24 06:02:53;;;;;;;7.40;3.40;;;;;;;;;;5042916;28;20192;-70
2021/12/24 06:05:57;;;;;;;6.77;2.63;;;;;;;;;;5055014;28;20176;-70
2021/12/24 06:09:03;;;;;;;6.07;2.80;;;;;;;;;;5054827;28;20176;-70
2021/12/24 06:12:07;;;;;;;6.97;3.77;;;;;;;;;;5012555;28;20181;-71
2021/12/24 06:15:11;;;;;;;5.13;3.10;;;;;;;;;;5034731;28;20216;-71
2021/12/24 06:18:25;;;;;;;3.97;3.00;;;;;;;;;;5034607;28;20224;-70
2021/12/24 06:21:29;;;;;;;8.23;3.33;;;;;;;;;;5038620;28;20196;-70
2021/12/24 06:24:34;;;;;;;3.83;2.47;;;;;;;;;;5041715;28;20582;-71
2021/12/24 06:27:39;;;;;;;4.10;2.73;;;;;;;;;;5054501;28;20180;-71
2021/12/24 06:30:43;;;;;;;3.47;2.40;;;;;;;;;;5054204;28;20188;-71
2021/12/24 06:33:47;;;;;;;4.10;2.30;;;;;;;;;;5052815;28;20216;-70
2021/12/24 06:36:53;;;;;;;2.73;2.10;;;;;;;;;;5009855;28;20185;-71
2021/12/24 06:39:57;;;;;;;2.83;2.10;;;;;;;;;;5034325;28;20189;-70
2021/12/24 06:43:02;;;;;;;3.43;2.23;;;;;;;;;;5051025;28;20647;-71
2021/12/24 06:46:11;;;;;;;5.27;2.40;;;;;;;;;;5053824;28;20199;-71
2021/12/24 06:49:15;;;;;;;7.53;4.30;;;;;;;;;;5042116;28;20176;-71
2021/12/24 06:52:19;;;;;;;8.70;3.77;;;;;;;;;;5054568;28;20623;-71
2021/12/24 06:55:24;;;;;;;3.73;2.70;;;;;;;;;;5045339;28;20219;-71
2021/12/24 06:58:33;;;;;;;11.60;5.27;;;;;;;;;;5041220;28;20204;-70
2021/12/24 07:01:37;;;;;;;9.13;4.20;;;;;;;;;;5042035;28;20204;-71
2021/12/24 07:04:44;;;;;;;12.33;4.90;;;;;;;;;;5040451;28;20212;-71
2021/12/24 07:07:48;;;;;;;38.77;17.10;;;;;;;;;;5054236;28;20176;-71
2021/12/24 07:10:53;;;;;;;50.30;27.03;;;;;;;;;;5053932;28;20654;-70
2021/12/24 07:13:56;;;;;;;41.70;28.23;;;;;;;;;;5050325;28;20698;-71
2021/12/24 07:17:01;;;;;;;15.67;8.00;;;;;;;;;;5033836;28;20185;-71
2021/12/24 07:20:05;;;;;;;25.53;13.57;;;;;;;;;;5040946;28;20211;-70
2021/12/24 07:23:10;;;;;;;29.07;14.73;;;;;;;;;;5037978;28;20189;-71
2021/12/24 07:26:14;;;;;;;32.27;17.20;;;;;;;;;;5053194;28;20543;-70
2021/12/24 07:29:18;;;;;;;18.83;11.07;;;;;;;;;;5053472;28;20196;-70
2021/12/24 07:32:23;;;;;;;5.77;3.30;;;;;;;;;;5053286;28;20634;-71
2021/12/24 07:35:26;;;;;;;3.93;3.07;;;;;;;;;;5044225;28;20223;-71
2021/12/24 07:38:30;;;;;;;3.57;2.50;;;;;;;;;;5051525;28;20204;-70
2021/12/24 07:41:35;;;;;;;6.90;3.30;;;;;;;;;;5052273;28;20188;-71
2021/12/24 07:44:44;;;;;;;7.03;2.73;;;;;;;;;;5035386;28;20212;-71
2021/12/24 07:48:06;;;;;;;4.33;2.63;;;;;;;;;;5052409;28;20180;-70
2021/12/24 07:54:14;;;;;;;3.47;2.43;;;;;;;;;;5050314;28;20219;-72
2021/12/24 07:57:18;;;;;;;3.50;2.63;;;;;;;;;;5042228;28;20643;-71
2021/12/24 08:00:25;;;;;;;4.90;2.63;;;;;;;;;;5024066;28;20180;-71
2021/12/24 08:03:29;;;;;;;4.23;2.90;;;;;;;;;;5040714;28;20172;-71
2021/12/24 08:06:34;;;;;;;6.57;5.73;;;;;;;;;;5050048;28;20199;-72
2021/12/24 08:09:38;;;;;;;6.50;4.17;;;;;;;;;;5043293;28;20639;-71
2021/12/24 08:12:42;;;;;;;3.30;2.60;;;;;;;;;;5044469;28;20558;-71
2021/12/24 08:15:50;;;;;;;3.50;2.50;;;;;;;;;;5036276;28;20188;-72
2021/12/24 08:18:54;;;;;;;4.90;2.70;;;;;;;;;;5032408;28;20212;-72
2021/12/24 08:21:59;;;;;;;3.30;2.40;;;;;;;;;;5044115;28;20192;-72
2021/12/24 08:25:06;;;;;;;3.67;2.73;;;;;;;;;;5053488;28;20211;-71
2021/12/24 08:28:10;;;;;;;3.33;2.30;;;;;;;;;;5051810;28;20196;-72
2021/12/24 08:31:15;;;;;;;3.77;2.30;;;;;;;;;;5056489;28;20594;-71
2021/12/24 08:34:19;;;;;;;4.60;2.97;;;;;;;;;;5056624;28;20219;-71
2021/12/24 08:37:24;;;;;;;3.40;2.20;;;;;;;;;;5036711;28;20177;-71
2021/12/24 08:40:28;;;;;;;6.13;2.73;;;;;;;;;;5027197;28;20654;-71
2021/12/24 08:43:32;;;;;;;4.47;2.80;;;;;;;;;;5055451;28;20654;-71
2021/12/24 08:46:36;;;;;;;5.17;2.80;;;;;;;;;;5056493;28;20184;-71
2021/12/24 08:49:41;;;;;;;7.77;3.10;;;;;;;;;;5055636;28;20200;-71
2021/12/24 08:52:46;;;;;;;5.17;2.83;;;;;;;;;;5031714;28;20200;-71
2021/12/24 08:55:51;;;;;;;5.40;2.77;;;;;;;;;;5055420;28;20192;-71
2021/12/24 08:58:56;;;;;;;4.13;2.90;;;;;;;;;;5036327;28;20200;-71
2021/12/24 09:02:02;;;;;;;3.00;2.50;;;;;;;;;;5024169;28;20185;-71
2021/12/24 09:05:08;;;;;;;4.13;2.80;;;;;;;;;;5044743;28;20223;-71
2021/12/24 09:08:12;;;;;;;3.70;2.73;;;;;;;;;;5032726;28;20611;-71
2021/12/24 09:11:17;;;;;;;22.87;15.50;;;;;;;;;;5032529;28;20180;-71
2021/12/24 09:14:22;;;;;;;19.17;9.63;;;;;;;;;;5042990;28;20219;-71
2021/12/24 09:17:28;;;;;;;35.10;20.00;;;;;;;;;;5055239;28;20372;-71
2021/12/24 09:20:38;;;;;;;68.13;35.60;;;;;;;;;;5054881;28;20520;-72
2021/12/24 09:23:46;;;;;;;55.40;32.03;;;;;;;;;;5055227;28;20220;-71
2021/12/24 09:26:57;;;;;;;137.50;61.80;;;;;;;;;;5054595;28;20192;-71
2021/12/24 09:30:04;;;;;;;10.60;8.10;;;;;;;;;;5023426;28;20189;-72
2021/12/24 09:33:08;;;;;;;6.57;5.07;;;;;;;;;;5050342;28;20192;-72
2021/12/24 09:36:13;;;;;;;5.27;3.70;;;;;;;;;;5043185;28;20180;-72
2021/12/24 09:39:18;;;;;;;9.70;7.90;;;;;;;;;;5043227;28;20204;-72
2021/12/24 09:42:27;;;;;;;14.63;11.13;;;;;;;;;;5055697;28;20189;-71
2021/12/24 09:45:31;;;;;;;12.40;9.80;;;;;;;;;;5054969;28;20221;-71
2021/12/24 09:48:35;;;;;;;35.53;23.30;;;;;;;;;;5055408;28;20172;-72
2021/12/24 09:51:42;;;;;;;37.60;22.27;;;;;;;;;;5050998;28;20188;-71
2021/12/24 09:54:47;;;;;;;33.33;20.63;;;;;;;;;;5041842;28;20599;-72
2021/12/24 09:57:53;;;;;;;14.10;10.20;;;;;;;;;;5055134;28;20181;-72
2021/12/24 10:00:57;;;;;;;33.27;21.13;;;;;;;;;;5054389;28;20200;-70
2021/12/24 10:04:06;;;;;;;52.83;30.20;;;;;;;;;;5052112;28;20574;-70
2021/12/24 10:07:12;;;;;;;9.57;5.67;;;;;;;;;;5042309;28;20176;-71
2021/12/24 10:10:25;;;;;;;42.93;22.30;;;;;;;;;;5039434;28;20189;-70
2021/12/24 10:13:43;;;;;;;27.47;15.40;;;;;;;;;;5054843;28;20504;-71
2021/12/24 10:16:49;;;;;;;37.13;23.67;;;;;;;;;;5055151;28;20536;-71
2021/12/24 10:19:57;;;;;;;44.03;28.00;;;;;;;;;;5053501;28;20204;-73
2021/12/24 10:23:01;;;;;;;33.50;22.00;;;;;;;;;;5051739;28;20193;-72
2021/12/24 10:26:22;;;;;;;5.70;4.23;;;;;;;;;;5044476;28;20192;-72
2021/12/24 10:29:31;;;;;;;8.50;7.23;;;;;;;;;;5048108;28;20574;-74
2021/12/24 10:32:39;;;;;;;7.40;6.57;;;;;;;;;;5010120;28;20624;-75
2021/12/24 10:35:43;;;;;;;7.00;5.80;;;;;;;;;;5032443;28;20188;-76
2021/12/24 10:47:59;;;;;;;5.07;4.37;;;;;;;;;;5074383;28;20682;-89
2021/12/24 10:51:19;;;;;;;8.87;6.77;;;;;;;;;;5051499;28;20196;-90
2021/12/24 10:58:46;;;;;;;7.37;5.60;;;;;;;;;;5042185;28;20219;-90
2021/12/24 11:02:11;;;;;;;5.23;3.77;;;;;;;;;;5106811;23;20242;-91
2021/12/24 11:05:43;;;;;;;13.97;10.43;;;;;;;;;;5082038;28;20175;-90
2021/12/24 11:09:05;;;;;;;6.00;4.70;;;;;;;;;;5048530;28;20183;-90
2021/12/24 11:12:35;;;;;;;4.83;4.13;;;;;;;;;;5046936;28;20220;-89
2021/12/24 11:16:32;;;;;;;5.13;3.10;;;;;;;;;;5026818;28;20191;-91
2021/12/24 11:19:51;;;;;;;5.17;3.20;;;;;;;;;;5060275;28;20215;-90
2021/12/24 11:23:06;;;;;;;5.67;4.37;;;;;;;;;;5029524;28;20180;-89
2021/12/24 11:26:17;;;;;;;8.10;7.30;;;;;;;;;;5022804;28;20562;-90
2021/12/24 11:29:21;;;;;;;5.37;4.40;;;;;;;;;;5038994;28;20199;-86
2021/12/24 11:32:25;;;;;;;5.20;4.70;;;;;;;;;;5061684;28;20187;-90
2021/12/24 11:35:31;;;;;;;3.90;3.10;;;;;;;;;;5038994;28;20175;-89
2021/12/24 11:38:40;;;;;;;6.20;4.37;;;;;;;;;;5050360;28;20669;-89
2021/12/24 11:41:52;;;;;;;3.50;2.87;;;;;;;;;;5029980;28;20224;-91
2021/12/24 11:45:00;;;;;;;6.13;3.13;;;;;;;;;;5025257;28;20175;-91
2021/12/24 11:48:32;;;;;;;3.80;2.87;;;;;;;;;;5054828;28;20188;-91
2021/12/24 11:51:40;;;;;;;3.20;2.57;;;;;;;;;;5038809;28;20215;-88
2021/12/24 11:54:47;;;;;;;4.93;2.90;;;;;;;;;;5032633;28;20286;-91
2021/12/24 11:58:01;;;;;;;4.10;2.30;;;;;;;;;;5038783;28;20183;-90
2021/12/24 12:01:06;;;;;;;4.73;4.03;;;;;;;;;;5038387;28;20220;-89
2021/12/24 12:04:20;;;;;;;4.30;2.93;;;;;;;;;;5030137;28;20623;-89
2021/12/24 12:07:24;;;;;;;4.60;2.77;;;;;;;;;;5044485;28;20199;-89
2021/12/24 12:10:54;;;;;;;4.97;4.03;;;;;;;;;;5049599;28;20207;-89
2021/12/24 12:14:26;;;;;;;6.17;3.20;;;;;;;;;;5049790;28;20191;-90
2021/12/24 12:17:30;;;;;;;3.50;2.80;;;;;;;;;;5053426;28;20188;-90
2021/12/24 12:20:48;;;;;;;3.13;2.50;;;;;;;;;;5035981;28;20227;-91
2021/12/24 12:27:17;;;;;;;4.47;2.73;;;;;;;;;;5059336;28;20188;-90
2021/12/24 12:30:44;;;;;;;3.60;2.07;;;;;;;;;;5049530;28;20219;-90
2021/12/24 12:33:48;;;;;;;3.40;2.20;;;;;;;;;;5038773;28;20530;-90
2021/12/24 12:36:53;;;;;;;4.23;2.53;;;;;;;;;;4989193;28;20232;-90
2021/12/24 12:40:18;;;;;;;5.93;2.67;;;;;;;;;;4970978;28;20202;-90
2021/12/24 12:43:24;;;;;;;3.67;2.30;;;;;;;;;;4975511;28;20198;-89
2021/12/24 12:46:36;;;;;;;3.33;2.20;;;;;;;;;;5001603;28;20197;-92
2021/12/24 12:50:13;;;;;;;4.47;2.23;;;;;;;;;;4980056;28;20182;-89
2021/12/24 12:53:24;;;;;;;2.50;2.10;;;;;;;;;;4979947;28;20185;-90
2021/12/24 12:56:31;;;;;;;5.80;4.87;;;;;;;;;;5004987;28;20186;-91
2021/12/24 13:00:20;;;;;;;4.77;4.30;;;;;;;;;;4995156;28;20209;-89
2021/12/24 13:03:56;;;;;;;9.07;7.20;;;;;;;;;;5000436;28;20178;-88
2021/12/24 13:07:01;;;;;;;43.97;37.27;;;;;;;;;;4993913;28;20177;-87
2021/12/24 13:10:05;;;;;;;15.17;11.33;;;;;;;;;;5004973;28;20178;-88
2021/12/24 13:13:11;;;;;;;2.30;2.10;;;;;;;;;;4974353;28;20178;-89
2021/12/24 13:16:17;;;;;;;4.23;2.40;;;;;;;;;;5000719;28;20193;-88
2021/12/24 13:22:47;;;;;;;11.77;10.67;;;;;;;;;;5016021;28;20181;-89
2021/12/24 13:25:52;;;;;;;48.20;32.40;;;;;;;;;;4993826;28;20182;-88
2021/12/24 13:29:28;;;;;;;35.73;25.80;;;;;;;;;;5003888;28;20193;-89
2021/12/24 13:32:46;;;;;;;16.10;13.33;;;;;;;;;;5004086;28;20177;-89
2021/12/24 13:35:50;;;;;;;15.63;10.30;;;;;;;;;;4992969;28;20197;-89
2021/12/24 13:39:07;;;;;;;31.33;20.87;;;;;;;;;;4993385;28;20556;-87
2021/12/24 13:42:11;;;;;;;14.27;12.77;;;;;;;;;;4991966;28;20194;-87
2021/12/24 13:45:16;;;;;;;6.47;5.87;;;;;;;;;;4992382;28;20189;-87
2021/12/24 13:48:27;;;;;;;5.00;3.47;;;;;;;;;;4993273;28;20552;-86
2021/12/24 13:54:54;;;;;;;7.20;5.67;;;;;;;;;;4994611;28;20190;-86
2021/12/24 13:58:05;;;;;;;13.20;9.43;;;;;;;;;;4975290;28;20181;-87
2021/12/24 14:01:09;;;;;;;15.50;11.03;;;;;;;;;;4985239;28;20221;-87
2021/12/24 14:04:16;;;;;;;13.10;9.17;;;;;;;;;;4979968;28;20193;-87
2021/12/24 14:07:20;;;;;;;15.57;10.73;;;;;;;;;;5003058;28;20620;-88
2021/12/24 14:10:25;;;;;;;15.67;11.30;;;;;;;;;;4980459;28;20213;-87
2021/12/24 14:13:34;;;;;;;6.77;5.87;;;;;;;;;;4992879;28;20193;-87
2021/12/24 14:20:10;;;;;;;5.20;3.97;;;;;;;;;;5003951;28;20206;-88
2021/12/24 14:23:16;;;;;;;3.53;2.60;;;;;;;;;;5016111;28;20194;-87
2021/12/24 14:26:32;;;;;;;3.67;3.13;;;;;;;;;;4992566;28;20560;-88
2021/12/24 14:29:40;;;;;;;16.67;10.77;;;;;;;;;;4985095;28;20186;-88
2021/12/24 14:32:48;;;;;;;10.00;8.13;;;;;;;;;;4989323;28;20185;-84
2021/12/24 14:36:18;;;;;;;20.53;11.70;;;;;;;;;;4981298;28;20190;-88
2021/12/24 14:39:22;;;;;;;11.40;6.90;;;;;;;;;;4980102;28;20217;-88
2021/12/24 14:42:37;;;;;;;28.73;16.17;;;;;;;;;;4980519;28;20201;-87
2021/12/24 14:45:43;;;;;;;35.77;19.47;;;;;;;;;;4980638;28;20189;-88
2021/12/24 14:48:47;;;;;;;13.00;7.80;;;;;;;;;;4991347;28;20223;-86
2021/12/24 14:51:51;;;;;;;12.47;8.23;;;;;;;;;;4972264;28;20597;-89
2021/12/24 14:55:04;;;;;;;7.03;4.17;;;;;;;;;;4961396;28;20178;-87
2021/12/24 14:58:10;;;;;;;4.37;3.50;;;;;;;;;;4960929;28;20198;-87
2021/12/24 15:01:23;;;;;;;5.33;4.73;;;;;;;;;;4960952;28;20226;-88
2021/12/24 15:04:27;;;;;;;4.00;2.80;;;;;;;;;;4983346;28;20667;-89
2021/12/24 15:07:31;;;;;;;6.00;2.80;;;;;;;;;;4978128;28;20560;-84
2021/12/24 15:10:36;;;;;;;4.33;3.00;;;;;;;;;;4994495;28;20218;-84
2021/12/24 15:13:57;;;;;;;3.70;2.47;;;;;;;;;;4994483;28;20202;-84
2021/12/24 15:17:03;;;;;;;7.47;2.80;;;;;;;;;;5000774;28;20564;-84
2021/12/24 15:20:08;;;;;;;3.70;2.33;;;;;;;;;;4979893;28;20233;-87
2021/12/24 15:23:14;;;;;;;3.23;2.90;;;;;;;;;;5002641;28;20189;-83
2021/12/24 15:35:03;;;;;;;5.90;3.13;;;;;;;;;;4992626;28;20568;-90
2021/12/24 15:54:01;;;;;;;8.03;5.73;;;;;;;;;;4990407;28;20331;-93
2021/12/24 15:57:22;;;;;;;23.70;14.90;;;;;;;;;;4982368;28;20190;-91
2021/12/24 16:04:51;;;;;;;6.10;3.77;;;;;;;;;;5012772;28;20173;-90
2021/12/24 16:07:56;;;;;;;7.03;3.87;;;;;;;;;;4982273;28;20561;-89
2021/12/24 16:11:01;;;;;;;3.93;3.47;;;;;;;;;;4971751;28;20673;-89
2021/12/24 16:14:05;;;;;;;5.23;3.67;;;;;;;;;;4971846;28;20187;-89
2021/12/24 16:17:18;;;;;;;5.60;3.77;;;;;;;;;;4982332;28;20182;-90
2021/12/24 16:20:23;;;;;;;3.70;3.20;;;;;;;;;;4971305;28;20716;-90
2021/12/24 16:23:27;;;;;;;4.73;3.50;;;;;;;;;;4971572;28;20182;-89
2021/12/24 16:26:33;;;;;;;7.07;3.50;;;;;;;;;;4971115;28;20194;-90
2021/12/24 16:30:00;;;;;;;7.07;3.60;;;;;;;;;;4972527;28;20186;-89
2021/12/24 16:33:05;;;;;;;7.47;5.07;;;;;;;;;;4975048;28;20182;-89
2021/12/24 16:36:09;;;;;;;11.37;9.97;;;;;;;;;;4975175;28;20174;-90
2021/12/24 16:39:13;;;;;;;9.07;7.40;;;;;;;;;;4975083;28;20194;-89
2021/12/24 16:42:18;;;;;;;9.07;4.90;;;;;;;;;;4964060;28;20195;-89
2021/12/24 16:45:30;;;;;;;8.17;4.33;;;;;;;;;;4975163;28;20178;-89
2021/12/24 16:48:35;;;;;;;11.07;9.17;;;;;;;;;;4974899;28;20201;-89
2021/12/24 16:51:39;;;;;;;8.80;6.13;;;;;;;;;;4974883;28;20210;-89
2021/12/24 16:54:48;;;;;;;7.13;6.10;;;;;;;;;;4975072;28;20178;-89
2021/12/24 16:57:55;;;;;;;5.77;4.20;;;;;;;;;;4963942;28;20568;-89
2021/12/24 17:01:02;;;;;;;5.93;3.70;;;;;;;;;;4975441;28;20705;-90
2021/12/24 17:04:06;;;;;;;6.23;4.00;;;;;;;;;;4997278;28;20182;-90
2021/12/24 17:07:12;;;;;;;5.93;3.87;;;;;;;;;;4974416;28;20236;-90
2021/12/24 17:10:16;;;;;;;3.83;3.40;;;;;;;;;;4985703;28;20214;-90
2021/12/24 17:13:20;;;;;;;6.77;4.53;;;;;;;;;;4974440;28;20190;-90
2021/12/24 17:16:34;;;;;;;13.63;10.83;;;;;;;;;;4963685;28;20625;-90
2021/12/24 17:19:38;;;;;;;14.87;11.37;;;;;;;;;;4975213;28;20187;-90
2021/12/24 17:22:46;;;;;;;28.67;19.03;;;;;;;;;;4985743;28;20186;-90
2021/12/24 17:25:51;;;;;;;32.00;21.50;;;;;;;;;;4975287;28;20524;-90
2021/12/24 17:28:56;;;;;;;15.27;10.87;;;;;;;;;;4974414;28;20186;-90
2021/12/24 17:32:00;;;;;;;15.03;10.83;;;;;;;;;;4985119;28;20210;-90
2021/12/24 17:35:08;;;;;;;13.17;8.60;;;;;;;;;;4974127;28;20179;-90
2021/12/24 17:38:12;;;;;;;11.23;9.10;;;;;;;;;;4974551;28;20178;-90
2021/12/24 17:41:16;;;;;;;7.63;6.40;;;;;;;;;;4973504;28;20570;-90
2021/12/24 17:44:20;;;;;;;9.17;5.60;;;;;;;;;;4973681;28;20202;-90
2021/12/24 17:47:24;;;;;;;7.47;4.23;;;;;;;;;;4962524;28;20570;-90
2021/12/24 17:50:29;;;;;;;10.97;8.27;;;;;;;;;;4973743;28;20210;-90
2021/12/24 17:53:33;;;;;;;32.53;20.07;;;;;;;;;;4962911;28;20183;-90
2021/12/24 17:56:37;;;;;;;15.13;11.40;;;;;;;;;;4973798;28;20182;-90
2021/12/24 17:59:41;;;;;;;10.50;7.83;;;;;;;;;;4962850;28;20182;-90
2021/12/24 18:02:46;;;;;;;12.00;9.53;;;;;;;;;;4984856;28;20175;-90
2021/12/24 18:05:50;;;;;;;6.37;5.53;;;;;;;;;;4973349;28;20202;-90
2021/12/24 18:08:55;;;;;;;7.37;5.77;;;;;;;;;;4984545;28;20178;-87
2021/12/24 18:11:59;;;;;;;6.50;4.57;;;;;;;;;;4995801;28;20213;-87
2021/12/24 18:15:07;;;;;;;6.97;5.07;;;;;;;;;;4973713;28;20178;-86
2021/12/24 18:18:10;;;;;;;6.97;5.37;;;;;;;;;;4995758;28;20198;-87
2021/12/24 18:21:16;;;;;;;35.80;22.73;;;;;;;;;;4984664;28;20229;-87
2021/12/24 18:24:20;;;;;;;33.97;20.30;;;;;;;;;;4973686;28;20182;-87
2021/12/24 18:27:24;;;;;;;36.97;22.03;;;;;;;;;;4963271;28;20178;-86
2021/12/24 18:30:28;;;;;;;24.70;14.57;;;;;;;;;;4973979;28;20217;-86
2021/12/24 18:33:33;;;;;;;15.20;11.10;;;;;;;;;;4985125;28;20178;-86
2021/12/24 18:36:38;;;;;;;12.43;9.53;;;;;;;;;;4972873;28;20193;-86
2021/12/24 18:39:42;;;;;;;12.60;10.77;;;;;;;;;;4992969;28;20185;-87
2021/12/24 18:42:47;;;;;;;25.80;15.87;;;;;;;;;;5007560;28;20185;-88
2021/12/24 18:45:51;;;;;;;17.80;8.60;;;;;;;;;;4973106;28;20177;-89
2021/12/24 18:48:56;;;;;;;13.43;9.13;;;;;;;;;;4979222;28;20573;-89
2021/12/24 18:52:00;;;;;;;17.40;10.13;;;;;;;;;;4980897;28;20687;-91
2021/12/24 18:55:05;;;;;;;29.40;16.50;;;;;;;;;;4991235;28;20178;-90
2021/12/24 18:58:09;;;;;;;8.77;7.17;;;;;;;;;;4979887;28;20178;-90
2021/12/24 19:01:21;;;;;;;7.10;5.23;;;;;;;;;;4983078;28;20230;-91
2021/12/24 19:04:25;;;;;;;11.23;7.30;;;;;;;;;;4983673;28;20216;-91
2021/12/24 19:07:28;;;;;;;9.03;6.17;;;;;;;;;;5002379;28;20201;-91
2021/12/24 19:10:41;;;;;;;28.30;16.60;;;;;;;;;;4979616;28;20217;-91
2021/12/24 19:13:46;;;;;;;7.90;6.07;;;;;;;;;;5002589;28;20198;-92
2021/12/24 19:16:53;;;;;;;9.47;7.07;;;;;;;;;;4991619;28;20181;-92
2021/12/24 19:19:57;;;;;;;15.43;9.37;;;;;;;;;;4985048;28;20189;-92
2021/12/24 19:23:04;;;;;;;9.43;6.40;;;;;;;;;;4991501;28;20193;-91
2021/12/24 19:26:45;;;;;;;9.40;6.93;;;;;;;;;;4991236;28;20174;-91
2021/12/24 19:30:24;;;;;;;10.77;6.90;;;;;;;;;;4946605;29;20231;-91
2021/12/24 19:33:30;;;;;;;8.27;6.87;;;;;;;;;;4942161;28;20202;-92
2021/12/24 19:36:34;;;;;;;18.30;12.70;;;;;;;;;;4982637;28;20197;-91
2021/12/24 19:39:38;;;;;;;16.87;12.37;;;;;;;;;;4977179;28;20210;-92
2021/12/24 19:42:43;;;;;;;11.57;8.33;;;;;;;;;;4971802;28;20225;-93
